Time;durP1;ratioP1;P1;durP2;ratioP2;P2;SDS_P1;SDS_P2;PMS_P1;PMS_P2;Temp;Humidity;BMP_temperature;BMP_pressure;BME280_temperature;BME280_humidity;BME280_pressure;Samples;Min_cycle;Max_cycle;Signal;HPM_P1;HPM_P2
2022/09/12 00:01:02;;;;;;;17.48;15.57;;;;;;;;;;4988511;28;20480;-83
2022/09/12 00:03:28;;;;;;;18.48;16.45;;;;;;;;;;4978434;28;20049;-83
2022/09/12 00:05:54;;;;;;;19.33;16.50;;;;;;;;;;4988559;28;20046;-83
2022/09/12 00:08:20;;;;;;;21.38;17.13;;;;;;;;;;4988629;28;20486;-82
2022/09/12 00:10:46;;;;;;;21.70;17.73;;;;;;;;;;4978193;28;20181;-83
2022/09/12 00:13:12;;;;;;;18.90;16.33;;;;;;;;;;4975378;28;20129;-83
2022/09/12 00:15:39;;;;;;;21.42;18.67;;;;;;;;;;4986561;28;20177;-82
2022/09/12 00:18:05;;;;;;;21.60;17.45;;;;;;;;;;4970385;28;20043;-82
2022/09/12 00:20:31;;;;;;;20.88;18.15;;;;;;;;;;4984969;28;20513;-82
2022/09/12 00:22:57;;;;;;;19.05;17.05;;;;;;;;;;4972174;28;20515;-82
2022/09/12 00:25:26;;;;;;;20.98;18.23;;;;;;;;;;4987672;28;20074;-83
2022/09/12 00:27:52;;;;;;;24.30;18.98;;;;;;;;;;4993003;28;20047;-83
2022/09/12 00:30:18;;;;;;;25.10;18.48;;;;;;;;;;4984516;28;20141;-83
2022/09/12 00:32:44;;;;;;;22.95;19.05;;;;;;;;;;4974170;28;20609;-83
2022/09/12 00:35:11;;;;;;;21.90;18.50;;;;;;;;;;4989330;28;20053;-82
2022/09/12 00:37:37;;;;;;;21.13;17.85;;;;;;;;;;4976675;28;20596;-83
2022/09/12 00:40:04;;;;;;;20.13;17.77;;;;;;;;;;4976625;28;20046;-83
2022/09/12 00:42:30;;;;;;;20.63;18.42;;;;;;;;;;4972183;28;20058;-85
2022/09/12 00:44:56;;;;;;;20.90;17.58;;;;;;;;;;4972982;28;20170;-84
2022/09/12 00:47:24;;;;;;;19.55;17.42;;;;;;;;;;4972999;28;20404;-84
2022/09/12 00:50:10;;;;;;;21.60;17.38;;;;;;;;;;4982872;28;20086;-84
2022/09/12 00:52:36;;;;;;;;;;;;;;;;;;4989044;28;20058;-82
2022/09/12 00:55:02;;;;;;;23.23;18.63;;;;;;;;;;4971972;28;19922;-82
2022/09/12 00:57:34;;;;;;;21.75;18.70;;;;;;;;;;4971735;28;20408;-82
2022/09/12 01:00:14;;;;;;;20.73;17.73;;;;;;;;;;4990822;28;20578;-83
2022/09/12 01:02:41;;;;;;;23.92;18.58;;;;;;;;;;4989197;28;20054;-83
2022/09/12 01:05:07;;;;;;;22.38;18.10;;;;;;;;;;4989398;28;20080;-83
2022/09/12 01:07:35;;;;;;;20.25;17.38;;;;;;;;;;4982150;28;20043;-82
2022/09/12 01:10:02;;;;;;;22.67;17.52;;;;;;;;;;4991349;28;20043;-83
2022/09/12 01:12:28;;;;;;;22.65;19.13;;;;;;;;;;4973172;28;20447;-82
2022/09/12 01:14:54;;;;;;;21.73;18.83;;;;;;;;;;4991321;28;20073;-83
2022/09/12 01:17:20;;;;;;;20.63;17.58;;;;;;;;;;4980368;28;20054;-82
2022/09/12 01:20:07;;;;;;;20.70;17.92;;;;;;;;;;4985131;28;20129;-82
2022/09/12 01:22:56;;;;;;;20.92;18.52;;;;;;;;;;4972363;28;20054;-82
2022/09/12 01:25:38;;;;;;;20.10;17.95;;;;;;;;;;4967681;28;20081;-83
2022/09/12 01:28:10;;;;;;;18.73;16.70;;;;;;;;;;4972481;28;20492;-82
2022/09/12 01:30:45;;;;;;;21.92;18.10;;;;;;;;;;4973861;28;20066;-83
2022/09/12 01:33:20;;;;;;;21.67;18.63;;;;;;;;;;4986390;28;20515;-83
2022/09/12 01:35:47;;;;;;;20.63;18.00;;;;;;;;;;4991405;28;20131;-82
2022/09/12 01:38:24;;;;;;;24.85;17.38;;;;;;;;;;4987750;28;20088;-82
2022/09/12 01:40:53;;;;;;;19.38;16.83;;;;;;;;;;4984464;28;20051;-82
2022/09/12 01:43:20;;;;;;;20.17;17.15;;;;;;;;;;4972411;28;20043;-83
2022/09/12 01:46:02;;;;;;;23.77;17.65;;;;;;;;;;4987464;28;20042;-83
2022/09/12 01:48:45;;;;;;;21.48;16.98;;;;;;;;;;4989366;28;20057;-82
2022/09/12 01:51:30;;;;;;;19.05;16.85;;;;;;;;;;4986740;28;20085;-83
2022/09/12 01:54:11;;;;;;;20.33;16.92;;;;;;;;;;4990227;28;20058;-83
2022/09/12 01:56:39;;;;;;;18.98;16.55;;;;;;;;;;4981655;28;20050;-83
2022/09/12 01:59:08;;;;;;;17.95;15.52;;;;;;;;;;4977148;28;20126;-83
2022/09/12 02:01:37;;;;;;;16.90;15.10;;;;;;;;;;4972320;28;20054;-83
2022/09/12 02:04:07;;;;;;;16.38;14.57;;;;;;;;;;4987634;28;20422;-83
2022/09/12 02:06:43;;;;;;;18.10;16.08;;;;;;;;;;4977284;28;20047;-83
2022/09/12 02:09:33;;;;;;;18.33;16.08;;;;;;;;;;4985004;28;20088;-83
2022/09/12 02:12:00;;;;;;;16.30;14.57;;;;;;;;;;4970657;28;20440;-82
2022/09/12 02:14:28;;;;;;;16.45;14.27;;;;;;;;;;4977169;28;20105;-83
2022/09/12 02:17:06;;;;;;;18.40;16.27;;;;;;;;;;4977873;28;20057;-82
2022/09/12 02:19:35;;;;;;;16.80;14.52;;;;;;;;;;4962505;28;20078;-83
2022/09/12 02:22:02;;;;;;;19.95;16.42;;;;;;;;;;4974589;28;20396;-83
2022/09/12 02:24:30;;;;;;;17.98;16.10;;;;;;;;;;4989322;28;20038;-82
2022/09/12 02:27:16;;;;;;;17.10;15.30;;;;;;;;;;4990046;28;20042;-83
2022/09/12 02:29:43;;;;;;;19.60;16.42;;;;;;;;;;4989867;28;20503;-83
2022/09/12 02:32:16;;;;;;;20.33;15.82;;;;;;;;;;4975004;28;20054;-82
2022/09/12 02:34:57;;;;;;;18.23;15.23;;;;;;;;;;4984705;28;20102;-83
2022/09/12 02:37:50;;;;;;;16.67;14.90;;;;;;;;;;4985031;28;20077;-82
2022/09/12 02:40:16;;;;;;;14.88;13.38;;;;;;;;;;4934074;28;20062;-82
2022/09/12 02:42:42;;;;;;;16.02;14.43;;;;;;;;;;4986562;28;20081;-83
2022/09/12 02:45:08;;;;;;;17.15;14.98;;;;;;;;;;4986881;28;20061;-83
2022/09/12 02:47:41;;;;;;;16.63;14.75;;;;;;;;;;4971838;28;20078;-82
2022/09/12 02:50:08;;;;;;;15.75;14.07;;;;;;;;;;4980085;28;20054;-83
2022/09/12 02:52:35;;;;;;;16.63;14.45;;;;;;;;;;4988213;28;20096;-83
2022/09/12 02:55:01;;;;;;;16.35;14.27;;;;;;;;;;4983592;28;20121;-83
2022/09/12 02:57:27;;;;;;;16.15;14.25;;;;;;;;;;4972678;28;20039;-83
2022/09/12 02:59:56;;;;;;;16.95;15.15;;;;;;;;;;4969211;28;20050;-83
2022/09/12 03:02:27;;;;;;;15.15;13.55;;;;;;;;;;4974138;28;20049;-82
2022/09/12 03:05:13;;;;;;;14.65;13.13;;;;;;;;;;4984398;28;20050;-83
2022/09/12 03:07:56;;;;;;;14.55;12.63;;;;;;;;;;4970526;28;20403;-82
2022/09/12 03:10:41;;;;;;;14.95;13.32;;;;;;;;;;4981747;28;20580;-83
2022/09/12 03:13:10;;;;;;;15.68;14.00;;;;;;;;;;4981837;28;20057;-83
2022/09/12 03:15:36;;;;;;;16.38;14.32;;;;;;;;;;4981497;28;20117;-82
2022/09/12 03:18:18;;;;;;;18.40;15.65;;;;;;;;;;4970026;28;20440;-83
2022/09/12 03:20:50;;;;;;;19.40;15.13;;;;;;;;;;4970729;28;20448;-83
2022/09/12 03:23:39;;;;;;;17.88;15.95;;;;;;;;;;4959170;28;20105;-83
2022/09/12 03:26:20;;;;;;;17.27;14.98;;;;;;;;;;4969489;28;20514;-83
2022/09/12 03:28:47;;;;;;;15.93;14.23;;;;;;;;;;4970452;28;20131;-82
2022/09/12 03:31:17;;;;;;;17.85;15.07;;;;;;;;;;4984422;28;20042;-82
2022/09/12 03:33:43;;;;;;;20.23;15.10;;;;;;;;;;4975148;28;20135;-83
2022/09/12 03:36:30;;;;;;;16.80;15.02;;;;;;;;;;4982194;28;20039;-83
2022/09/12 03:38:56;;;;;;;19.70;15.18;;;;;;;;;;4986560;28;20554;-83
2022/09/12 03:41:22;;;;;;;15.32;13.70;;;;;;;;;;4973039;28;20086;-82
2022/09/12 03:43:48;;;;;;;20.73;16.50;;;;;;;;;;4983793;28;20376;-83
2022/09/12 03:46:14;;;;;;;18.73;14.13;;;;;;;;;;4988551;28;20038;-83
2022/09/12 03:48:40;;;;;;;18.88;15.50;;;;;;;;;;4987745;28;20141;-83
2022/09/12 03:51:09;;;;;;;18.30;15.98;;;;;;;;;;4975905;28;20058;-83
2022/09/12 03:53:35;;;;;;;17.13;15.15;;;;;;;;;;4971601;28;20134;-83
2022/09/12 03:56:06;;;;;;;19.30;15.32;;;;;;;;;;4981154;28;20046;-82
2022/09/12 03:58:32;;;;;;;19.38;16.23;;;;;;;;;;4970195;28;20051;-83
2022/09/12 04:00:58;;;;;;;20.08;15.82;;;;;;;;;;4980502;28;20042;-83
2022/09/12 04:03:24;;;;;;;18.90;15.00;;;;;;;;;;4982120;28;20047;-83
2022/09/12 04:05:50;;;;;;;22.27;16.65;;;;;;;;;;4984255;28;20086;-83
2022/09/12 04:08:17;;;;;;;20.65;15.70;;;;;;;;;;4987128;28;20051;-83
2022/09/12 04:10:43;;;;;;;21.58;17.38;;;;;;;;;;4981267;28;20046;-83
2022/09/12 04:13:09;;;;;;;22.08;17.65;;;;;;;;;;4974924;28;20520;-83
2022/09/12 04:15:35;;;;;;;21.23;16.45;;;;;;;;;;4975954;28;20133;-83
2022/09/12 04:18:01;;;;;;;20.77;16.55;;;;;;;;;;4975950;28;20046;-83
2022/09/12 04:20:27;;;;;;;19.98;17.33;;;;;;;;;;4975343;28;20046;-82
2022/09/12 04:22:53;;;;;;;23.80;17.50;;;;;;;;;;4963183;28;20066;-83
2022/09/12 04:25:19;;;;;;;22.02;17.35;;;;;;;;;;4972647;28;20042;-83
2022/09/12 04:27:45;;;;;;;23.73;18.30;;;;;;;;;;4986472;28;20046;-83
2022/09/12 04:30:11;;;;;;;21.08;17.30;;;;;;;;;;4988401;28;20053;-83
2022/09/12 04:32:37;;;;;;;23.73;18.25;;;;;;;;;;4987206;28;20059;-83
2022/09/12 04:35:04;;;;;;;22.33;17.92;;;;;;;;;;4983775;28;20039;-83
2022/09/12 04:37:30;;;;;;;22.85;17.73;;;;;;;;;;4985815;28;20064;-82
2022/09/12 04:39:57;;;;;;;26.25;19.40;;;;;;;;;;4970334;28;20141;-83
2022/09/12 04:42:24;;;;;;;24.95;19.00;;;;;;;;;;4971052;28;20050;-83
2022/09/12 04:44:50;;;;;;;25.00;19.02;;;;;;;;;;4984292;28;20508;-82
2022/09/12 04:47:16;;;;;;;26.10;19.67;;;;;;;;;;4973366;28;20042;-83
2022/09/12 04:49:41;;;;;;;26.60;19.77;;;;;;;;;;4963788;28;20064;-83
2022/09/12 04:52:08;;;;;;;25.90;19.30;;;;;;;;;;4973143;28;20038;-83
2022/09/12 04:54:34;;;;;;;25.92;20.40;;;;;;;;;;4987649;28;20050;-83
2022/09/12 04:57:00;;;;;;;29.70;20.60;;;;;;;;;;4969735;28;20058;-82
2022/09/12 04:59:26;;;;;;;28.42;20.38;;;;;;;;;;4976423;28;20118;-83
2022/09/12 05:01:53;;;;;;;26.85;20.50;;;;;;;;;;4972611;28;20046;-83
2022/09/12 05:04:19;;;;;;;28.45;20.92;;;;;;;;;;4973082;28;20039;-83
2022/09/12 05:06:46;;;;;;;26.92;20.92;;;;;;;;;;4981025;28;20051;-83
2022/09/12 05:09:13;;;;;;;30.25;20.30;;;;;;;;;;4968632;28;20054;-83
2022/09/12 05:11:40;;;;;;;30.75;22.52;;;;;;;;;;4970410;28;20075;-83
2022/09/12 05:14:07;;;;;;;30.00;20.90;;;;;;;;;;4978146;28;20046;-83
2022/09/12 05:16:33;;;;;;;29.17;21.20;;;;;;;;;;4984860;28;20054;-82
2022/09/12 05:18:59;;;;;;;28.73;21.48;;;;;;;;;;4984746;28;20057;-83
2022/09/12 05:21:25;;;;;;;30.67;21.92;;;;;;;;;;4981948;28;20046;-83
2022/09/12 05:23:53;;;;;;;32.40;22.08;;;;;;;;;;4968650;28;20051;-83
2022/09/12 05:26:20;;;;;;;28.98;20.73;;;;;;;;;;4986574;28;20061;-82
2022/09/12 05:28:46;;;;;;;29.80;22.63;;;;;;;;;;4992794;28;20089;-82
2022/09/12 05:31:13;;;;;;;30.33;21.85;;;;;;;;;;4978065;28;20552;-83
2022/09/12 05:33:41;;;;;;;31.05;21.55;;;;;;;;;;4987484;28;20050;-82
2022/09/12 05:36:09;;;;;;;30.17;21.65;;;;;;;;;;4988554;28;20065;-83
2022/09/12 05:38:35;;;;;;;29.15;21.48;;;;;;;;;;4973817;28;20055;-83
2022/09/12 05:41:11;;;;;;;29.33;21.50;;;;;;;;;;4972074;28;20130;-82
2022/09/12 05:43:38;;;;;;;29.10;21.35;;;;;;;;;;4973193;28;20059;-83
2022/09/12 05:46:09;;;;;;;30.60;22.55;;;;;;;;;;4983459;28;20126;-82
2022/09/12 05:48:38;;;;;;;30.70;21.45;;;;;;;;;;4979662;28;20093;-82
2022/09/12 05:51:12;;;;;;;30.40;21.27;;;;;;;;;;4985336;28;20491;-83
2022/09/12 05:53:39;;;;;;;27.58;20.50;;;;;;;;;;4972250;28;20395;-83
2022/09/12 05:56:10;;;;;;;28.27;21.60;;;;;;;;;;4987408;28;20042;-83
2022/09/12 05:58:37;;;;;;;28.45;20.63;;;;;;;;;;4985989;28;20144;-82
2022/09/12 06:01:06;;;;;;;28.67;22.02;;;;;;;;;;4983219;28;20073;-84
2022/09/12 06:03:32;;;;;;;28.48;19.80;;;;;;;;;;4990648;28;20050;-83
2022/09/12 06:06:02;;;;;;;31.88;21.83;;;;;;;;;;4978343;28;20043;-83
2022/09/12 06:08:28;;;;;;;28.58;20.95;;;;;;;;;;4982095;28;20129;-81
2022/09/12 06:10:58;;;;;;;27.88;20.42;;;;;;;;;;4974868;28;20054;-82
2022/09/12 06:13:24;;;;;;;28.60;21.30;;;;;;;;;;4980734;28;20407;-82
2022/09/12 06:15:50;;;;;;;28.65;20.60;;;;;;;;;;4971678;28;20046;-82
2022/09/12 06:18:16;;;;;;;25.58;19.70;;;;;;;;;;4972251;28;20054;-81
2022/09/12 06:20:43;;;;;;;28.15;21.08;;;;;;;;;;4970823;28;20480;-81
2022/09/12 06:23:09;;;;;;;27.88;20.42;;;;;;;;;;4952729;28;20150;-81
2022/09/12 06:25:35;;;;;;;30.35;20.27;;;;;;;;;;4980919;28;20121;-81
2022/09/12 06:28:01;;;;;;;26.38;20.25;;;;;;;;;;4980873;28;20057;-81
2022/09/12 06:30:27;;;;;;;29.90;21.52;;;;;;;;;;4972258;28;20050;-82
2022/09/12 06:32:55;;;;;;;27.40;20.55;;;;;;;;;;4982538;28;20046;-82
2022/09/12 06:35:22;;;;;;;26.65;18.98;;;;;;;;;;4981319;28;20126;-82
2022/09/12 06:37:48;;;;;;;25.45;19.40;;;;;;;;;;4972540;28;20047;-83
2022/09/12 06:40:14;;;;;;;28.77;20.08;;;;;;;;;;4990217;28;20379;-82
2022/09/12 06:42:40;;;;;;;25.27;19.23;;;;;;;;;;4975125;28;20109;-82
2022/09/12 06:45:07;;;;;;;25.80;19.70;;;;;;;;;;4980881;28;20045;-82
2022/09/12 06:47:33;;;;;;;25.30;18.98;;;;;;;;;;4987988;28;20039;-81
2022/09/12 06:49:59;;;;;;;24.98;19.40;;;;;;;;;;4975312;28;20043;-82
2022/09/12 06:52:25;;;;;;;25.63;18.27;;;;;;;;;;4984132;28;20405;-82
2022/09/12 06:54:51;;;;;;;26.70;19.52;;;;;;;;;;4988010;28;20076;-82
2022/09/12 06:57:17;;;;;;;25.77;19.25;;;;;;;;;;4989612;28;20384;-82
2022/09/12 06:59:43;;;;;;;26.40;19.50;;;;;;;;;;4987918;28;20090;-82
2022/09/12 07:02:09;;;;;;;25.20;18.80;;;;;;;;;;4985800;28;20053;-84
2022/09/12 07:04:36;;;;;;;26.20;20.10;;;;;;;;;;4974268;28;20121;-83
2022/09/12 07:07:02;;;;;;;25.98;19.60;;;;;;;;;;4988017;28;20446;-82
2022/09/12 07:09:29;;;;;;;27.30;20.00;;;;;;;;;;4985057;28;20037;-82
2022/09/12 07:11:55;;;;;;;28.00;20.20;;;;;;;;;;4979107;28;20046;-83
2022/09/12 07:14:21;;;;;;;29.88;20.15;;;;;;;;;;4987392;28;20073;-85
2022/09/12 07:16:47;;;;;;;27.77;20.25;;;;;;;;;;4975050;28;20050;-82
2022/09/12 07:19:13;;;;;;;26.67;20.23;;;;;;;;;;4974453;28;20084;-82
2022/09/12 07:21:40;;;;;;;27.15;19.95;;;;;;;;;;4972794;28;20496;-82
2022/09/12 07:24:07;;;;;;;28.75;20.92;;;;;;;;;;4959177;28;20062;-82
2022/09/12 07:26:34;;;;;;;28.35;20.63;;;;;;;;;;4973814;28;20065;-82
2022/09/12 07:29:00;;;;;;;30.42;21.05;;;;;;;;;;4988555;28;20142;-82
2022/09/12 07:31:27;;;;;;;28.58;20.13;;;;;;;;;;4973193;28;21970;-82
2022/09/12 07:33:53;;;;;;;29.35;21.17;;;;;;;;;;4971263;28;20377;-82
2022/09/12 07:36:21;;;;;;;26.83;19.88;;;;;;;;;;4974715;28;20100;-85
2022/09/12 07:38:47;;;;;;;30.25;21.02;;;;;;;;;;4985712;28;20055;-81
2022/09/12 07:41:13;;;;;;;27.55;19.88;;;;;;;;;;4978311;28;20092;-81
2022/09/12 07:43:40;;;;;;;27.85;19.35;;;;;;;;;;4971048;28;20057;-81
2022/09/12 07:46:07;;;;;;;28.88;20.00;;;;;;;;;;4980645;28;20129;-82
2022/09/12 07:48:33;;;;;;;27.85;20.17;;;;;;;;;;4982866;28;20042;-82
2022/09/12 07:51:00;;;;;;;29.17;20.63;;;;;;;;;;4974610;28;20039;-84
2022/09/12 07:53:30;;;;;;;29.35;20.70;;;;;;;;;;4974222;28;20042;-83
2022/09/12 07:55:56;;;;;;;28.63;20.55;;;;;;;;;;4975301;28;20046;-84
2022/09/12 07:58:25;;;;;;;31.23;21.88;;;;;;;;;;4975407;28;20130;-84
2022/09/12 08:00:51;;;;;;;32.70;21.35;;;;;;;;;;4989034;28;20057;-83
2022/09/12 08:03:18;;;;;;;30.48;21.52;;;;;;;;;;4976898;28;20051;-83
2022/09/12 08:05:44;;;;;;;32.75;23.52;;;;;;;;;;4970099;28;20051;-83
2022/09/12 08:08:10;;;;;;;31.45;21.40;;;;;;;;;;4969682;28;20085;-84
2022/09/12 08:10:36;;;;;;;33.40;22.95;;;;;;;;;;4972056;28;20038;-91
2022/09/12 08:13:02;;;;;;;37.30;25.20;;;;;;;;;;4970894;28;20047;-82
2022/09/12 08:15:30;;;;;;;36.22;24.60;;;;;;;;;;4987577;28;20074;-83
2022/09/12 08:17:56;;;;;;;37.80;24.25;;;;;;;;;;4987689;28;20054;-82
2022/09/12 08:20:22;;;;;;;41.80;26.38;;;;;;;;;;4985364;28;20050;-83
2022/09/12 08:22:48;;;;;;;34.67;24.65;;;;;;;;;;4967007;28;20420;-83
2022/09/12 08:25:14;;;;;;;39.67;26.33;;;;;;;;;;4967293;28;20050;-83
2022/09/12 08:27:41;;;;;;;38.22;26.48;;;;;;;;;;4976172;28;20145;-82
2022/09/12 08:30:08;;;;;;;37.67;26.08;;;;;;;;;;4987118;28;20149;-83
2022/09/12 08:32:34;;;;;;;40.65;26.08;;;;;;;;;;4977196;28;20057;-83
2022/09/12 08:35:00;;;;;;;37.38;25.17;;;;;;;;;;4979321;28;20078;-82
2022/09/12 08:37:30;;;;;;;39.10;25.48;;;;;;;;;;4979023;28;20051;-82
2022/09/12 08:39:56;;;;;;;37.13;25.63;;;;;;;;;;4969229;28;20050;-83
2022/09/12 08:42:43;;;;;;;38.40;25.98;;;;;;;;;;4987905;28;20046;-82
2022/09/12 08:45:19;;;;;;;38.05;26.58;;;;;;;;;;4987952;28;20049;-83
2022/09/12 08:47:46;;;;;;;41.17;27.25;;;;;;;;;;4989048;28;20038;-82
2022/09/12 08:50:12;;;;;;;41.97;28.42;;;;;;;;;;4991403;28;20050;-83
2022/09/12 08:53:01;;;;;;;40.58;28.17;;;;;;;;;;4993344;28;20126;-82
2022/09/12 08:55:27;;;;;;;47.22;31.27;;;;;;;;;;4977205;28;20054;-83
2022/09/12 08:57:53;;;;;;;44.20;30.50;;;;;;;;;;4971980;28;20058;-83
2022/09/12 09:00:20;;;;;;;46.10;30.83;;;;;;;;;;4975542;28;20126;-83
2022/09/12 09:02:47;;;;;;;54.03;33.58;;;;;;;;;;4988662;28;20042;-83
2022/09/12 09:05:36;;;;;;;46.67;32.30;;;;;;;;;;4990050;28;20058;-87
2022/09/12 09:08:31;;;;;;;48.03;32.70;;;;;;;;;;4983579;28;20039;-83
2022/09/12 09:10:57;;;;;;;49.72;32.65;;;;;;;;;;4971428;28;20496;-83
2022/09/12 09:16:23;;;;;;;47.42;31.55;;;;;;;;;;4992227;28;20050;-85
2022/09/12 09:18:51;;;;;;;49.17;32.42;;;;;;;;;;4989308;28;20053;-84
2022/09/12 09:21:17;;;;;;;50.17;31.92;;;;;;;;;;4978496;28;20050;-83
2022/09/12 09:23:45;;;;;;;49.65;32.38;;;;;;;;;;4968306;28;20078;-82
2022/09/12 09:26:13;;;;;;;46.30;30.85;;;;;;;;;;4976003;28;20320;-83
2022/09/12 09:28:44;;;;;;;49.28;29.52;;;;;;;;;;4988092;28;20118;-84
2022/09/12 09:31:17;;;;;;;42.20;27.33;;;;;;;;;;4972824;28;20495;-84
2022/09/12 09:33:43;;;;;;;35.00;24.20;;;;;;;;;;4980219;28;20044;-84
2022/09/12 09:36:42;;;;;;;38.13;24.27;;;;;;;;;;4980515;28;20399;-87
2022/09/12 09:39:08;;;;;;;33.53;23.15;;;;;;;;;;4929569;28;20515;-84
2022/09/12 09:41:35;;;;;;;32.10;21.30;;;;;;;;;;4979560;28;20047;-84
2022/09/12 09:44:01;;;;;;;28.90;21.13;;;;;;;;;;4979048;28;20324;-84
2022/09/12 09:46:27;;;;;;;30.75;21.58;;;;;;;;;;4981163;28;20073;-86
2022/09/12 09:48:54;;;;;;;28.55;19.58;;;;;;;;;;4976242;28;20066;-84
2022/09/12 09:51:24;;;;;;;28.95;19.55;;;;;;;;;;4972905;28;20077;-83
2022/09/12 09:53:52;;;;;;;28.80;19.52;;;;;;;;;;4972100;28;20043;-84
2022/09/12 09:56:35;;;;;;;24.35;17.88;;;;;;;;;;4989622;28;20089;-84
2022/09/12 09:59:10;;;;;;;27.05;17.40;;;;;;;;;;4983018;28;20058;-84
2022/09/12 10:01:38;;;;;;;25.73;16.58;;;;;;;;;;4971368;28;20047;-84
2022/09/12 10:04:05;;;;;;;25.27;17.35;;;;;;;;;;4973201;28;20047;-84
2022/09/12 10:06:33;;;;;;;20.45;15.13;;;;;;;;;;4972078;28;20511;-83
2022/09/12 10:09:14;;;;;;;23.98;16.58;;;;;;;;;;4983361;28;20507;-83
2022/09/12 10:11:41;;;;;;;24.13;16.27;;;;;;;;;;4991712;28;20061;-83
2022/09/12 10:14:25;;;;;;;22.45;16.35;;;;;;;;;;4988546;28;20047;-83
2022/09/12 10:16:52;;;;;;;22.33;16.15;;;;;;;;;;4977120;28;20047;-83
2022/09/12 10:19:24;;;;;;;23.00;16.60;;;;;;;;;;4978712;28;20058;-83
2022/09/12 10:21:52;;;;;;;22.60;16.38;;;;;;;;;;4978803;28;20152;-83
2022/09/12 10:24:21;;;;;;;23.33;17.83;;;;;;;;;;4949931;28;20050;-83
2022/09/12 10:27:07;;;;;;;23.05;16.27;;;;;;;;;;4991116;28;20065;-82
2022/09/12 10:29:34;;;;;;;;;;;;;;;;;;4987179;28;20038;-83
2022/09/12 10:32:00;;;;;;;;;;;;;;;;;;4976024;28;19922;-83
2022/09/12 10:34:26;;;;;;;23.00;16.30;;;;;;;;;;4972403;28;19922;-83
2022/09/12 10:36:55;;;;;;;23.23;16.10;;;;;;;;;;4986675;28;20558;-83
2022/09/12 10:39:21;;;;;;;23.88;16.10;;;;;;;;;;4989892;28;20133;-83
2022/09/12 10:41:47;;;;;;;23.40;15.77;;;;;;;;;;4990916;28;20408;-83
2022/09/12 10:44:15;;;;;;;18.20;13.52;;;;;;;;;;4972713;28;20040;-83
2022/09/12 10:46:41;;;;;;;20.13;14.32;;;;;;;;;;4979809;28;20647;-83
2022/09/12 10:49:22;;;;;;;19.85;14.20;;;;;;;;;;4973992;28;20039;-83
2022/09/12 10:51:49;;;;;;;21.05;14.68;;;;;;;;;;4970103;28;20083;-83
2022/09/12 10:54:17;;;;;;;18.38;13.75;;;;;;;;;;4979197;28;20034;-83
2022/09/12 10:56:55;;;;;;;19.50;12.48;;;;;;;;;;4990686;28;20512;-83
2022/09/12 10:59:20;;;;;;;12.93;10.15;;;;;;;;;;4984255;28;20046;-83
2022/09/12 11:01:49;;;;;;;15.05;10.88;;;;;;;;;;4974837;28;20070;-82
2022/09/12 11:04:15;;;;;;;13.73;11.15;;;;;;;;;;4971213;28;20522;-82
2022/09/12 11:06:53;;;;;;;16.88;11.85;;;;;;;;;;4975004;28;20408;-83
2022/09/12 11:09:25;;;;;;;16.65;11.23;;;;;;;;;;4988229;28;20038;-82
2022/09/12 11:11:57;;;;;;;16.80;11.30;;;;;;;;;;4990091;28;20064;-82
2022/09/12 11:14:42;;;;;;;17.98;12.75;;;;;;;;;;4971571;28;20055;-82
2022/09/12 11:17:26;;;;;;;14.18;10.07;;;;;;;;;;4982795;28;20053;-82
2022/09/12 11:20:11;;;;;;;17.38;11.82;;;;;;;;;;4989735;28;20057;-82
2022/09/12 11:22:48;;;;;;;16.13;11.20;;;;;;;;;;4989009;28;20498;-82
2022/09/12 11:25:28;;;;;;;15.25;11.25;;;;;;;;;;4976929;28;20460;-82
2022/09/12 11:27:58;;;;;;;20.08;12.55;;;;;;;;;;4988145;28;20050;-82
2022/09/12 11:30:24;;;;;;;19.67;12.75;;;;;;;;;;4987399;28;20038;-82
2022/09/12 11:33:08;;;;;;;17.20;12.20;;;;;;;;;;4987341;28;20114;-82
2022/09/12 11:35:43;;;;;;;17.45;12.70;;;;;;;;;;4989936;28;20534;-83
2022/09/12 11:38:15;;;;;;;16.48;11.63;;;;;;;;;;4977993;28;20568;-82
2022/09/12 11:40:41;;;;;;;17.90;12.60;;;;;;;;;;4971056;28;20130;-82
2022/09/12 11:43:13;;;;;;;15.73;11.40;;;;;;;;;;4970344;28;20085;-82
2022/09/12 11:45:41;;;;;;;18.77;12.30;;;;;;;;;;4972716;28;20053;-82
2022/09/12 11:48:11;;;;;;;20.13;13.43;;;;;;;;;;4989340;28;20042;-82
2022/09/12 11:50:37;;;;;;;18.25;12.30;;;;;;;;;;4988964;28;20046;-83
2022/09/12 11:53:16;;;;;;;17.15;11.48;;;;;;;;;;4988326;28;20529;-82
2022/09/12 11:55:52;;;;;;;14.38;9.85;;;;;;;;;;4989069;28;20057;-82
2022/09/12 11:58:19;;;;;;;16.23;12.13;;;;;;;;;;4989742;28;20088;-82
2022/09/12 12:00:54;;;;;;;14.52;11.20;;;;;;;;;;4984896;28;20053;-82
2022/09/12 12:03:30;;;;;;;15.88;11.07;;;;;;;;;;4987999;28;20065;-83
2022/09/12 12:06:05;;;;;;;19.63;11.80;;;;;;;;;;4988134;28;20042;-82
2022/09/12 12:08:37;;;;;;;16.08;10.98;;;;;;;;;;4989246;28;20089;-82
2022/09/12 12:11:04;;;;;;;15.98;11.38;;;;;;;;;;4989507;28;20129;-83
2022/09/12 12:13:57;;;;;;;17.40;13.05;;;;;;;;;;4986090;28;20054;-86
2022/09/12 12:16:23;;;;;;;16.77;10.88;;;;;;;;;;4976381;28;20535;-82
2022/09/12 12:18:56;;;;;;;16.00;11.10;;;;;;;;;;4988764;28;20492;-82
2022/09/12 12:21:28;;;;;;;14.80;10.60;;;;;;;;;;4989674;28;20054;-82
2022/09/12 12:24:23;;;;;;;10.63;8.85;;;;;;;;;;4982688;28;20562;-82
2022/09/12 12:26:59;;;;;;;9.55;7.28;;;;;;;;;;4985219;28;20050;-82
2022/09/12 12:29:31;;;;;;;7.95;6.57;;;;;;;;;;4984898;28;20403;-82
2022/09/12 12:32:03;;;;;;;8.00;6.03;;;;;;;;;;4986010;28;20499;-82
2022/09/12 12:34:31;;;;;;;8.07;6.43;;;;;;;;;;4988272;28;20042;-82
2022/09/12 12:36:58;;;;;;;9.48;6.70;;;;;;;;;;4992458;28;20090;-82
2022/09/12 12:39:33;;;;;;;8.48;6.20;;;;;;;;;;4981859;28;20053;-82
2022/09/12 12:41:59;;;;;;;8.95;7.03;;;;;;;;;;4983218;28;20049;-81
2022/09/12 12:44:47;;;;;;;5.72;5.13;;;;;;;;;;4980444;28;20038;-82
2022/09/12 12:47:21;;;;;;;8.82;5.35;;;;;;;;;;4977681;28;20495;-81
2022/09/12 12:49:52;;;;;;;7.80;5.78;;;;;;;;;;4992107;28;20050;-81
2022/09/12 12:52:18;;;;;;;6.60;5.13;;;;;;;;;;4991801;28;20053;-90
2022/09/12 12:54:44;;;;;;;9.00;6.00;;;;;;;;;;4978945;28;20085;-82
2022/09/12 12:57:19;;;;;;;7.18;5.43;;;;;;;;;;4973223;28;20584;-81
2022/09/12 12:59:57;;;;;;;6.90;5.55;;;;;;;;;;4973578;28;20053;-81
2022/09/12 13:02:23;;;;;;;8.35;5.53;;;;;;;;;;4972966;28;20082;-81
2022/09/12 13:04:49;;;;;;;7.50;6.30;;;;;;;;;;4973670;28;20077;-81
2022/09/12 13:07:25;;;;;;;7.55;6.65;;;;;;;;;;4973149;28;20051;-82
2022/09/12 13:09:51;;;;;;;7.22;6.20;;;;;;;;;;4972256;28;20089;-82
2022/09/12 13:12:25;;;;;;;8.32;5.60;;;;;;;;;;4993518;28;20072;-81
2022/09/12 13:14:51;;;;;;;7.18;5.38;;;;;;;;;;4993255;28;20069;-81
2022/09/12 13:17:20;;;;;;;6.13;5.53;;;;;;;;;;4992251;28;20046;-81
2022/09/12 13:19:46;;;;;;;7.63;5.25;;;;;;;;;;4992620;28;20523;-82
2022/09/12 13:22:13;;;;;;;6.20;5.18;;;;;;;;;;4992138;28;20448;-81
2022/09/12 13:24:43;;;;;;;7.75;5.10;;;;;;;;;;4990569;28;20510;-89
2022/09/12 13:27:20;;;;;;;6.70;5.05;;;;;;;;;;4972529;28;20100;-81
2022/09/12 13:29:48;;;;;;;5.05;4.47;;;;;;;;;;4991913;28;20490;-82
2022/09/12 13:32:15;;;;;;;8.25;5.10;;;;;;;;;;4992182;28;20050;-81
2022/09/12 13:34:47;;;;;;;6.88;5.10;;;;;;;;;;4987503;28;20279;-85
2022/09/12 13:37:26;;;;;;;6.80;5.63;;;;;;;;;;4972489;28;20182;-81
2022/09/12 13:40:15;;;;;;;6.32;5.07;;;;;;;;;;4974830;28;20058;-82
2022/09/12 13:42:43;;;;;;;5.40;4.85;;;;;;;;;;4972884;28;20046;-86
2022/09/12 13:45:23;;;;;;;5.80;4.70;;;;;;;;;;4972008;28;20068;-82
2022/09/12 13:48:15;;;;;;;4.90;4.40;;;;;;;;;;4971139;28;20400;-82
2022/09/12 13:50:56;;;;;;;5.53;4.95;;;;;;;;;;4969745;28;20058;-82
2022/09/12 13:53:28;;;;;;;6.70;5.05;;;;;;;;;;4972161;28;20073;-81
2022/09/12 13:55:58;;;;;;;8.13;4.97;;;;;;;;;;4994218;28;20066;-81
2022/09/12 13:58:27;;;;;;;6.95;4.88;;;;;;;;;;4971393;28;20047;-82
2022/09/12 14:01:00;;;;;;;6.93;5.30;;;;;;;;;;4970336;28;20051;-82
2022/09/12 14:06:15;;;;;;;7.22;5.60;;;;;;;;;;4971215;28;20050;-82
2022/09/12 14:08:41;;;;;;;7.45;5.90;;;;;;;;;;4980711;28;20046;-82
2022/09/12 14:11:11;;;;;;;5.80;5.05;;;;;;;;;;4987714;28;20050;-82
2022/09/12 14:13:38;;;;;;;7.20;5.03;;;;;;;;;;4974642;28;20068;-82
2022/09/12 14:16:08;;;;;;;5.20;4.70;;;;;;;;;;4983945;28;20053;-82
2022/09/12 14:18:36;;;;;;;6.60;5.13;;;;;;;;;;4977573;28;20048;-82
2022/09/12 14:21:11;;;;;;;6.38;5.70;;;;;;;;;;4981173;28;20050;-81
2022/09/12 14:23:46;;;;;;;7.03;6.32;;;;;;;;;;4979209;28;20062;-81
2022/09/12 14:26:12;;;;;;;;;;;;;;;;;;4971374;28;20069;-81
2022/09/12 14:28:43;;;;;;;7.57;5.43;;;;;;;;;;4971744;28;19922;-81
2022/09/12 14:31:33;;;;;;;6.97;5.60;;;;;;;;;;4971157;28;20054;-81
2022/09/12 14:34:15;;;;;;;7.10;5.32;;;;;;;;;;4968975;28;20059;-81
2022/09/12 14:36:46;;;;;;;6.20;5.60;;;;;;;;;;4972165;28;20046;-80
2022/09/12 14:39:31;;;;;;;9.15;6.63;;;;;;;;;;4971937;28;20074;-82
2022/09/12 14:42:05;;;;;;;9.15;6.75;;;;;;;;;;4983468;28;20476;-81
2022/09/12 14:44:32;;;;;;;7.90;6.63;;;;;;;;;;4972810;28;20149;-82
2022/09/12 14:47:01;;;;;;;8.18;6.80;;;;;;;;;;4976029;28;20385;-82